Beef Island, British Virgin Islands

6:14 PM AST on July 23, 2016 (GMT -0400)
Beef I International | | Change Station

Elev 13 ft 18.44 °N, 64.54 °W | Updated 14 minutes ago

Scattered Clouds
Scattered Clouds
81 °F
Feels Like 86 °F
N
10
Wind Variable Wind from East

Today
High -- | Low -- °F
--% Chance of Precip.
Yesterday
High -- | Low -- °F
Precip. -- in
Pressure 29.98 in
Visibility 6.2 miles
Clouds Few 2100 ft
Scattered Clouds 4200 ft
Heat Index 86 °F
Dew Point 75 °F
Humidity 84%
Rainfall 0.00 in
Snow Depth Not available.
5:53 AM 6:56 PM
Waning Gibbous, 82% visible
METAR TUPJ 232200Z 10009KT 9999 FEW021 SCT042 27/24 Q1015 RMK A3000
Pressure 29.98 in
Visibility 6.2 miles
Clouds Few 2100 ft
Scattered Clouds 4200 ft
Heat Index 86 °F
Dew Point 75 °F
Humidity 84%
Rainfall 0.00 in
Snow Depth Not available.
5:53 AM 6:56 PM
Waning Gibbous, 82% visible
METAR TUPJ 232200Z 10009KT 9999 FEW021 SCT042 27/24 Q1015 RMK A3000

10-Day Weather Forecast

Almanac

Astronomy

Jul. 23, 2016 Rise Set
Actual Time
Civil Twilight
Nautical Twilight
Astronomical Twilight
Moon
Length of Visible Light
Length of Day
Tomorrow will be .
, % of the Moon is Illuminated

Today's Extremes

Country Highs Country Lows

Community

WunderPhotos

Upload Photos

1,926,940 photos uploaded!

WunderBlog® & News

Nearby

Air Quality

  Air Quality AQ Index Pollutant
Not available.

Snow Depth

Station Depth Elevation

Earthquake Activity

City Distance Mag. Time & Date
Minimum magnitude displayed is 2.5.

Coastal Water Temperatures

Place Temperature

Stations

Nearby Weather Stations

Station Location Temp. Windchill Dew Point Humidity Wind Precip. Elev Updated Type